Orrville, Ohio
Current Conditions -  °F | °C
As of 5:56 PM on Tuesday 27 Jan 2015 (Local Time) from KBJJ Reporting Station
Clear Clear  
Wind Chill:   Ceiling: Unl
Heat Index: 13°   Visibility: 10mi
Dew Point:   Wind: 9mph
Humidity: 77%   Direction: 330°NNW
Pressure: 30.11"   Gusts: NA
Location:  40.84°N, 81.76°W
Report Text: KBJJ 272256Z AUTO 33008KT 10SM CLR M11/M14 A3011 RMK AO2 SLP218 T11061139 TSNO
Loading
Personal Weather Stations






























Interactive Weather Map New forecast layout! Learn more

10-Day Weather Forecast

Advertisements
Track Severe Weather on mobile